createdAt,value
2022-12-06T00:01:33.878Z,7.14
2022-12-06T00:04:04.234Z,7.14
2022-12-06T00:06:35.512Z,7.13
2022-12-06T00:09:05.222Z,7.13
2022-12-06T00:11:36.222Z,7.12
2022-12-06T00:14:09.413Z,7.09
2022-12-06T00:16:38.571Z,7.10
2022-12-06T00:19:07.464Z,7.08
2022-12-06T00:21:37.492Z,7.10
2022-12-06T00:24:08.037Z,7.12
2022-12-06T00:26:37.848Z,7.03
2022-12-06T00:29:10.210Z,7.17
2022-12-06T00:31:38.944Z,7.20
2022-12-06T00:34:07.331Z,7.20
2022-12-06T00:36:38.927Z,7.25
2022-12-06T00:39:10.626Z,7.25
2022-12-06T00:41:39.266Z,7.10
2022-12-06T00:44:09.130Z,7.26
2022-12-06T00:46:39.014Z,7.29
2022-12-06T00:49:08.680Z,7.33
2022-12-06T00:51:38.230Z,7.37
2022-12-06T00:54:08.188Z,7.36
2022-12-06T00:56:37.713Z,7.32
2022-12-06T00:59:09.200Z,7.27
2022-12-06T01:01:38.328Z,7.28
2022-12-06T01:04:08.163Z,7.26
2022-12-06T01:06:38.962Z,7.23
2022-12-06T01:09:09.643Z,7.23
2022-12-06T01:11:38.469Z,7.19
2022-12-06T01:14:08.769Z,7.13
2022-12-06T01:16:37.368Z,7.15
2022-12-06T01:19:07.615Z,7.13
2022-12-06T01:21:36.691Z,7.11
2022-12-06T01:24:05.667Z,7.10
2022-12-06T01:26:36.017Z,7.09
2022-12-06T01:29:05.872Z,7.08
2022-12-06T01:31:38.961Z,7.06
2022-12-06T01:34:14.659Z,7.02
2022-12-06T01:36:43.657Z,7.02
2022-12-06T01:39:12.848Z,6.95
2022-12-06T01:41:41.953Z,7.00
2022-12-06T01:44:36.235Z,7.00
2022-12-06T01:47:07.248Z,7.00
2022-12-06T01:49:37.409Z,6.98
2022-12-06T01:52:10.691Z,6.99
2022-12-06T01:54:40.421Z,6.98
2022-12-06T01:57:11.968Z,6.97
2022-12-06T01:59:40.921Z,6.94
2022-12-06T02:02:11.210Z,6.95
2022-12-06T02:04:41.419Z,6.95
2022-12-06T02:07:10.583Z,6.97
2022-12-06T02:09:39.899Z,6.96
2022-12-06T02:12:13.749Z,6.98
2022-12-06T02:14:45.079Z,6.99
2022-12-06T02:17:27.727Z,6.99
2022-12-06T02:20:05.015Z,7.03
2022-12-06T02:23:00.721Z,6.98
2022-12-06T02:25:53.023Z,7.02
2022-12-06T02:28:40.189Z,7.01
2022-12-06T02:31:16.766Z,7.01
2022-12-06T02:33:51.985Z,6.98
2022-12-06T02:36:28.391Z,6.94
2022-12-06T02:39:01.482Z,6.87
2022-12-06T02:41:37.139Z,6.90
2022-12-06T02:44:09.783Z,6.86
2022-12-06T02:46:41.886Z,6.93
2022-12-06T02:49:13.142Z,6.94
2022-12-06T02:51:42.813Z,6.94
2022-12-06T02:54:12.360Z,6.96
2022-12-06T02:56:41.130Z,6.96
2022-12-06T02:59:11.375Z,6.97
2022-12-06T03:01:46.624Z,7.00
2022-12-06T03:04:35.224Z,7.00
2022-12-06T03:07:21.973Z,7.01
2022-12-06T03:10:03.604Z,7.01
2022-12-06T03:12:39.207Z,7.00
2022-12-06T03:15:15.699Z,7.02
2022-12-06T03:17:51.251Z,7.01
2022-12-06T03:20:26.344Z,6.99
2022-12-06T03:23:00.032Z,7.01
2022-12-06T03:25:30.043Z,7.01
2022-12-06T03:28:02.163Z,7.01
2022-12-06T03:30:34.483Z,7.01
2022-12-06T03:33:06.432Z,7.01
2022-12-06T03:35:37.361Z,7.03
2022-12-06T03:38:10.511Z,7.02
2022-12-06T03:40:42.858Z,7.01
2022-12-06T03:43:12.110Z,6.93
2022-12-06T03:45:46.469Z,6.97
2022-12-06T03:48:21.184Z,6.98
2022-12-06T03:50:58.644Z,6.93
2022-12-06T03:53:28.100Z,6.89
2022-12-06T03:55:56.830Z,6.85
2022-12-06T03:58:25.499Z,6.92
2022-12-06T04:00:54.022Z,6.92
2022-12-06T04:03:24.038Z,6.91
2022-12-06T04:05:52.631Z,6.92
2022-12-06T04:08:22.293Z,6.91
2022-12-06T04:10:50.561Z,6.90
2022-12-06T04:13:19.839Z,6.86
2022-12-06T04:15:48.723Z,6.84
2022-12-06T04:18:19.032Z,6.77
2022-12-06T04:21:01.441Z,6.75
2022-12-06T04:23:30.970Z,6.74
2022-12-06T04:25:59.987Z,6.75
2022-12-06T04:28:38.350Z,6.76
2022-12-06T04:31:21.696Z,6.77
2022-12-06T04:34:01.353Z,6.77
2022-12-06T04:36:41.093Z,6.74
2022-12-06T04:39:09.471Z,6.76
2022-12-06T04:41:48.274Z,6.79
2022-12-06T04:44:17.273Z,6.80
2022-12-06T04:46:46.067Z,6.74
2022-12-06T04:49:14.785Z,6.83
2022-12-06T04:51:44.875Z,6.81
2022-12-06T04:54:13.576Z,6.80
2022-12-06T04:56:42.076Z,6.78
2022-12-06T04:59:10.810Z,6.78
2022-12-06T05:01:39.393Z,6.57
2022-12-06T05:04:08.173Z,6.50
2022-12-06T05:06:37.169Z,6.66
2022-12-06T05:09:07.511Z,6.60
2022-12-06T05:11:36.112Z,6.63
2022-12-06T05:14:05.134Z,6.57
2022-12-06T05:16:33.798Z,6.58
2022-12-06T05:19:02.502Z,6.52
2022-12-06T05:21:31.125Z,6.37
2022-12-06T05:23:59.973Z,6.60
2022-12-06T05:26:30.722Z,6.57
2022-12-06T05:28:59.634Z,6.54
2022-12-06T05:31:28.948Z,6.51
2022-12-06T05:33:57.643Z,6.51
2022-12-06T05:36:28.340Z,6.50
2022-12-06T05:38:58.004Z,6.51
2022-12-06T05:41:26.318Z,6.48
2022-12-06T05:43:56.192Z,6.45
2022-12-06T05:46:24.808Z,6.41
2022-12-06T05:48:53.402Z,6.32
2022-12-06T05:51:22.053Z,6.24
2022-12-06T05:53:50.772Z,6.23
2022-12-06T05:56:19.447Z,6.16
2022-12-06T05:58:48.433Z,6.16
2022-12-06T06:01:18.537Z,6.15
2022-12-06T06:03:47.676Z,6.11
2022-12-06T06:06:17.611Z,6.13
2022-12-06T06:08:46.263Z,6.08
2022-12-06T06:11:14.743Z,6.07
2022-12-06T06:13:43.442Z,6.05
2022-12-06T06:16:12.094Z,6.02
2022-12-06T06:18:42.167Z,6.00
2022-12-06T06:21:11.345Z,5.98
2022-12-06T06:23:40.213Z,5.93
2022-12-06T06:26:09.781Z,5.79
2022-12-06T06:28:38.864Z,5.79
2022-12-06T06:31:08.354Z,5.74
2022-12-06T06:33:37.445Z,5.64
2022-12-06T06:36:08.404Z,5.63
2022-12-06T06:38:38.175Z,5.57
2022-12-06T06:41:07.946Z,5.51
2022-12-06T06:43:36.571Z,5.49
2022-12-06T06:46:08.235Z,5.51
2022-12-06T06:48:40.670Z,5.46
2022-12-06T06:51:12.815Z,5.42
2022-12-06T06:53:42.417Z,5.38
2022-12-06T06:56:11.414Z,5.38
2022-12-06T06:58:40.354Z,5.34
2022-12-06T07:01:10.461Z,5.07
2022-12-06T07:03:39.074Z,5.30
2022-12-06T07:06:12.002Z,5.28
2022-12-06T07:08:42.905Z,5.25
2022-12-06T07:11:12.712Z,5.19
2022-12-06T07:13:46.892Z,5.03
2022-12-06T07:16:19.946Z,5.03
2022-12-06T07:18:48.854Z,4.96
2022-12-06T07:21:19.066Z,4.90
2022-12-06T07:23:47.874Z,4.88
2022-12-06T07:26:18.692Z,4.85
2022-12-06T07:28:49.122Z,4.80
2022-12-06T07:31:21.459Z,4.81
2022-12-06T07:33:53.602Z,4.82
2022-12-06T07:36:25.056Z,4.86
2022-12-06T07:38:56.991Z,4.87
2022-12-06T07:41:37.546Z,4.90
2022-12-06T07:44:25.309Z,4.91
2022-12-06T07:46:53.874Z,4.73
2022-12-06T07:49:22.496Z,4.97
2022-12-06T07:51:54.845Z,4.99
2022-12-06T07:54:24.205Z,4.93
2022-12-06T07:56:52.877Z,4.96
2022-12-06T07:59:21.870Z,4.97
2022-12-06T08:01:51.483Z,4.99
2022-12-06T08:04:20.502Z,5.00
2022-12-06T08:06:49.144Z,4.99
2022-12-06T08:09:19.149Z,5.04
2022-12-06T08:11:48.604Z,5.09
2022-12-06T08:14:17.279Z,5.17
2022-12-06T08:16:45.971Z,5.16
2022-12-06T08:19:14.464Z,5.29
2022-12-06T08:21:43.066Z,5.30
2022-12-06T08:24:12.956Z,5.14
2022-12-06T08:26:42.938Z,5.30
2022-12-06T08:29:11.655Z,5.32
2022-12-06T08:31:40.468Z,5.32
2022-12-06T08:34:09.364Z,5.36
2022-12-06T08:36:40.729Z,5.35
2022-12-06T08:39:10.290Z,5.38
2022-12-06T08:41:48.823Z,5.36
2022-12-06T08:44:19.678Z,5.39
2022-12-06T08:46:48.951Z,5.21
2022-12-06T08:49:18.975Z,5.36
2022-12-06T08:51:47.876Z,5.42
2022-12-06T08:54:19.469Z,5.42
2022-12-06T08:56:48.731Z,5.48
2022-12-06T08:59:19.046Z,5.52
2022-12-06T09:01:48.534Z,5.52
2022-12-06T09:04:18.188Z,5.55
2022-12-06T09:06:47.056Z,5.56
2022-12-06T09:09:17.147Z,5.60
2022-12-06T09:11:48.105Z,5.59
2022-12-06T09:14:22.300Z,5.58
2022-12-06T09:16:53.627Z,5.60
2022-12-06T09:19:22.538Z,5.63
2022-12-06T09:21:51.153Z,5.68
2022-12-06T09:24:20.466Z,5.48
2022-12-06T09:26:49.130Z,5.69
2022-12-06T09:29:20.438Z,5.71
2022-12-06T09:31:49.258Z,5.72
2022-12-06T09:34:18.412Z,5.69
2022-12-06T09:36:51.294Z,5.76
2022-12-06T09:39:24.805Z,5.73
2022-12-06T09:42:24.246Z,5.72
2022-12-06T09:45:19.816Z,5.65
2022-12-06T09:48:06.760Z,5.62
2022-12-06T09:50:47.695Z,5.59
2022-12-06T09:53:24.732Z,5.46
2022-12-06T09:56:04.097Z,5.60
2022-12-06T09:58:48.008Z,5.56
2022-12-06T10:01:28.796Z,5.51
2022-12-06T10:04:25.409Z,5.49
2022-12-06T10:07:04.378Z,5.53
2022-12-06T10:09:43.527Z,5.62
2022-12-06T10:12:25.717Z,5.66
2022-12-06T10:15:10.361Z,5.64
2022-12-06T10:17:52.756Z,5.65
2022-12-06T10:20:34.566Z,5.65
2022-12-06T10:23:17.340Z,5.47
2022-12-06T10:25:57.234Z,5.51
2022-12-06T10:28:37.160Z,5.70
2022-12-06T10:31:21.942Z,5.80
2022-12-06T10:33:57.561Z,5.76
2022-12-06T10:36:40.364Z,5.78
2022-12-06T10:39:17.865Z,5.78
2022-12-06T10:41:54.226Z,5.77
2022-12-06T10:44:30.513Z,5.72
2022-12-06T10:47:06.756Z,5.74
2022-12-06T10:49:44.722Z,5.73
2022-12-06T10:52:25.933Z,5.72
2022-12-06T10:55:14.493Z,5.73
2022-12-06T10:57:49.631Z,5.74
2022-12-06T11:00:21.508Z,5.80
2022-12-06T11:03:00.396Z,5.75
2022-12-06T11:05:38.060Z,5.79
2022-12-06T11:08:12.591Z,5.77
2022-12-06T11:10:43.334Z,5.53
2022-12-06T11:13:21.824Z,5.75
2022-12-06T11:15:57.150Z,5.67
2022-12-06T11:18:29.652Z,5.67
2022-12-06T11:21:04.811Z,5.66
2022-12-06T11:23:43.099Z,5.63
2022-12-06T11:26:23.390Z,5.55
2022-12-06T11:29:04.293Z,5.62
2022-12-06T11:31:38.320Z,5.66
2022-12-06T11:34:14.935Z,5.62
2022-12-06T11:36:46.511Z,5.60
2022-12-06T11:39:16.207Z,5.37
2022-12-06T11:41:45.361Z,5.61
2022-12-06T11:44:20.601Z,5.59
2022-12-06T11:46:55.061Z,5.50
2022-12-06T11:49:30.214Z,5.60
2022-12-06T11:52:05.639Z,5.59
2022-12-06T11:54:40.064Z,5.59
2022-12-06T11:57:22.382Z,5.28
2022-12-06T12:00:12.582Z,5.56
2022-12-06T12:02:43.014Z,5.58
2022-12-06T12:05:15.534Z,5.57
2022-12-06T12:07:49.363Z,5.56
2022-12-06T12:10:32.029Z,5.58
2022-12-06T12:13:33.191Z,5.55
2022-12-06T12:16:04.776Z,5.53
2022-12-06T12:18:36.500Z,5.52
2022-12-06T12:21:07.890Z,5.46
2022-12-06T12:23:40.062Z,5.48
2022-12-06T12:26:14.410Z,5.49
2022-12-06T12:28:45.620Z,5.52
2022-12-06T12:31:20.282Z,5.52
2022-12-06T12:33:49.742Z,5.46
2022-12-06T12:36:23.737Z,5.37
2022-12-06T12:38:57.465Z,5.37
2022-12-06T12:41:32.629Z,5.35
2022-12-06T12:44:36.041Z,5.07
2022-12-06T12:46:57.650Z,5.26
2022-12-06T12:49:31.888Z,5.25
2022-12-06T12:52:01.971Z,5.16
2022-12-06T12:54:35.041Z,5.27
2022-12-06T12:57:13.245Z,5.31
2022-12-06T12:59:43.718Z,5.31
2022-12-06T13:02:21.892Z,5.34
2022-12-06T13:05:11.017Z,5.35
2022-12-06T13:07:44.574Z,5.33
2022-12-06T13:10:22.385Z,5.32
2022-12-06T13:12:55.248Z,5.36
2022-12-06T13:15:30.402Z,5.36
2022-12-06T13:18:07.403Z,5.35
2022-12-06T13:20:37.792Z,5.31
2022-12-06T13:23:11.398Z,5.28
2022-12-06T13:25:41.790Z,5.30
2022-12-06T13:28:20.396Z,5.27
2022-12-06T13:30:55.694Z,5.29
2022-12-06T13:33:27.168Z,5.29
2022-12-06T13:35:59.956Z,5.25
2022-12-06T13:38:33.501Z,5.24
2022-12-06T13:41:04.908Z,5.23
2022-12-06T13:43:53.208Z,5.22
2022-12-06T13:46:39.875Z,5.19
2022-12-06T13:49:28.010Z,5.19
2022-12-06T13:51:56.673Z,5.17
2022-12-06T13:54:34.407Z,4.88
2022-12-06T13:57:28.708Z,5.12
2022-12-06T13:59:58.618Z,5.09
2022-12-06T14:02:36.928Z,5.08
2022-12-06T14:05:39.121Z,5.07
2022-12-06T14:08:11.294Z,5.09
2022-12-06T14:10:40.206Z,5.10
2022-12-06T14:13:17.857Z,5.04
2022-12-06T14:15:52.029Z,4.77
2022-12-06T14:18:27.468Z,5.00
2022-12-06T14:20:59.078Z,4.95
2022-12-06T14:23:31.660Z,4.90
2022-12-06T14:26:14.878Z,4.89
2022-12-06T14:28:45.974Z,4.85
2022-12-06T14:31:28.478Z,4.78
2022-12-06T14:33:58.036Z,4.78
2022-12-06T14:36:30.588Z,4.66
2022-12-06T14:39:02.855Z,4.77
2022-12-06T14:41:47.217Z,4.76
2022-12-06T14:44:18.907Z,4.79
2022-12-06T14:46:49.473Z,4.77
2022-12-06T14:49:32.239Z,4.75
2022-12-06T14:52:00.951Z,4.76
2022-12-06T14:54:36.302Z,4.74
2022-12-06T14:57:06.169Z,4.64
2022-12-06T15:02:26.717Z,4.69
2022-12-06T15:04:55.858Z,4.70
2022-12-06T15:07:39.765Z,4.67
2022-12-06T15:10:22.538Z,4.67
2022-12-06T15:12:56.888Z,4.60
2022-12-06T15:15:39.395Z,4.65
2022-12-06T15:18:18.870Z,4.64
2022-12-06T15:20:48.821Z,4.64
2022-12-06T15:23:40.982Z,4.65
2022-12-06T15:26:13.273Z,4.64
2022-12-06T15:28:42.299Z,4.63
2022-12-06T15:31:19.231Z,4.63
2022-12-06T15:33:48.624Z,4.61
2022-12-06T15:36:19.353Z,4.63
2022-12-06T15:38:48.520Z,4.57
2022-12-06T15:41:18.953Z,4.60
2022-12-06T15:43:49.581Z,4.63
2022-12-06T15:46:23.984Z,4.56
2022-12-06T15:48:54.090Z,4.62
2022-12-06T15:51:26.604Z,4.61
2022-12-06T15:53:56.749Z,4.57
2022-12-06T15:56:29.096Z,4.59
2022-12-06T15:58:58.096Z,4.61
2022-12-06T16:01:29.852Z,4.62
2022-12-06T16:03:59.230Z,4.59
2022-12-06T16:06:29.483Z,4.59
2022-12-06T16:08:58.563Z,4.59
2022-12-06T16:11:28.096Z,4.60
2022-12-06T16:13:56.830Z,4.60
2022-12-06T16:16:25.772Z,4.60
2022-12-06T16:18:56.580Z,4.62
2022-12-06T16:21:28.011Z,4.60
2022-12-06T16:24:12.944Z,4.59
2022-12-06T16:26:45.252Z,4.60
2022-12-06T16:29:17.617Z,4.61
2022-12-06T16:31:46.817Z,4.61
2022-12-06T16:34:17.239Z,4.61
2022-12-06T16:37:04.914Z,4.62
2022-12-06T16:39:36.171Z,4.62
2022-12-06T16:42:05.558Z,4.57
2022-12-06T16:44:51.997Z,4.62
2022-12-06T16:49:52.469Z,4.65
2022-12-06T16:52:21.265Z,4.59
2022-12-06T16:54:49.890Z,4.38
2022-12-06T16:57:20.041Z,4.64
2022-12-06T16:59:48.936Z,4.63
2022-12-06T17:02:26.793Z,4.63
2022-12-06T17:04:57.698Z,4.64
2022-12-06T17:07:26.240Z,4.68
2022-12-06T17:09:55.173Z,4.67
2022-12-06T17:12:24.192Z,4.61
2022-12-06T17:14:53.101Z,4.72
2022-12-06T17:17:26.379Z,4.67
2022-12-06T17:19:58.244Z,4.70
2022-12-06T17:22:26.891Z,4.71
2022-12-06T17:24:58.200Z,4.58
2022-12-06T17:27:26.983Z,4.64
2022-12-06T17:29:55.512Z,4.68
2022-12-06T17:32:24.653Z,4.68
2022-12-06T17:34:53.253Z,4.67
2022-12-06T17:37:23.331Z,4.68
2022-12-06T17:39:52.042Z,4.70
2022-12-06T17:42:30.437Z,4.69
2022-12-06T17:44:59.362Z,4.50
2022-12-06T17:47:28.292Z,4.68
2022-12-06T17:49:57.528Z,4.70
2022-12-06T17:52:27.542Z,4.70
2022-12-06T17:54:56.203Z,4.46
2022-12-06T17:57:25.226Z,4.64
2022-12-06T17:59:53.902Z,4.63
2022-12-06T18:02:26.105Z,4.62
2022-12-06T18:04:56.821Z,4.58
2022-12-06T18:07:25.635Z,4.52
2022-12-06T18:09:55.651Z,4.59
2022-12-06T18:12:26.535Z,4.60
2022-12-06T18:14:56.984Z,4.57
2022-12-06T18:17:25.640Z,4.56
2022-12-06T18:19:54.401Z,4.49
2022-12-06T18:22:23.413Z,4.52
2022-12-06T18:24:52.551Z,4.54
2022-12-06T18:27:22.774Z,4.54
2022-12-06T18:29:51.514Z,4.57
2022-12-06T18:32:20.125Z,4.54
2022-12-06T18:34:48.857Z,4.55
2022-12-06T18:37:17.514Z,4.53
2022-12-06T18:39:46.308Z,4.54
2022-12-06T18:42:15.010Z,4.53
2022-12-06T18:44:45.034Z,4.51
2022-12-06T18:47:13.648Z,4.50
2022-12-06T18:49:42.795Z,4.49
2022-12-06T18:52:12.767Z,4.48
2022-12-06T18:54:41.819Z,4.35
2022-12-06T18:57:10.723Z,4.37
2022-12-06T18:59:39.363Z,4.39
2022-12-06T19:02:11.948Z,4.40
2022-12-06T19:04:40.658Z,4.40
2022-12-06T19:07:09.304Z,4.38
2022-12-06T19:09:38.265Z,4.35
2022-12-06T19:12:07.143Z,4.37
2022-12-06T19:14:35.814Z,4.35
2022-12-06T19:17:04.404Z,4.31
2022-12-06T19:19:35.726Z,4.35
2022-12-06T19:22:04.475Z,4.37
2022-12-06T19:24:33.199Z,4.34
2022-12-06T19:27:02.315Z,4.37
2022-12-06T19:29:31.164Z,4.40
2022-12-06T19:31:59.711Z,4.33
2022-12-06T19:34:30.324Z,4.39
2022-12-06T19:37:00.515Z,4.36
2022-12-06T19:39:29.205Z,4.33
2022-12-06T19:42:06.748Z,4.12
2022-12-06T19:44:36.528Z,4.34
2022-12-06T19:47:04.800Z,4.37
2022-12-06T19:49:33.743Z,4.38
2022-12-06T19:52:03.642Z,4.37
2022-12-06T19:54:36.016Z,4.37
2022-12-06T19:57:05.037Z,4.36
2022-12-06T19:59:35.747Z,4.32
2022-12-06T20:02:05.532Z,4.28
2022-12-06T20:04:37.416Z,4.27
2022-12-06T20:07:08.928Z,4.31
2022-12-06T20:09:37.759Z,4.34
2022-12-06T20:12:07.977Z,4.26
2022-12-06T20:14:40.140Z,4.31
2022-12-06T20:17:10.940Z,4.33
2022-12-06T20:19:43.213Z,4.36
2022-12-06T20:22:14.090Z,4.35
2022-12-06T20:24:42.867Z,4.33
2022-12-06T20:27:11.817Z,4.33
2022-12-06T20:29:40.567Z,4.07
2022-12-06T20:32:09.193Z,4.25
2022-12-06T20:34:37.948Z,3.96
2022-12-06T20:37:07.560Z,4.14
2022-12-06T20:39:37.449Z,4.14
2022-12-06T20:42:07.137Z,4.10
2022-12-06T20:44:36.603Z,4.05
2022-12-06T20:47:06.104Z,4.07
2022-12-06T20:49:34.891Z,4.06
2022-12-06T20:52:04.988Z,4.05
2022-12-06T20:54:33.543Z,4.05
2022-12-06T20:57:08.160Z,4.06
2022-12-06T20:59:37.089Z,4.07
2022-12-06T21:02:06.811Z,3.85
2022-12-06T21:04:35.676Z,4.00
2022-12-06T21:07:04.335Z,4.04
2022-12-06T21:09:33.104Z,4.06
2022-12-06T21:12:01.642Z,4.04
2022-12-06T21:14:32.478Z,4.06
2022-12-06T21:17:01.246Z,4.05
2022-12-06T21:19:29.787Z,4.05
2022-12-06T21:22:01.297Z,4.06
2022-12-06T21:24:30.117Z,4.06
2022-12-06T21:26:58.694Z,4.07
2022-12-06T21:29:31.025Z,3.97
2022-12-06T21:32:03.206Z,4.07
2022-12-06T21:34:32.258Z,3.99
2022-12-06T21:37:00.856Z,3.89
2022-12-06T21:39:29.986Z,4.07
2022-12-06T21:41:59.976Z,3.91
2022-12-06T21:44:29.030Z,4.16
2022-12-06T21:46:57.816Z,4.11
2022-12-06T21:49:28.284Z,4.15
2022-12-06T21:52:03.189Z,4.13
2022-12-06T21:54:36.497Z,4.15
2022-12-06T21:57:05.197Z,4.13
2022-12-06T21:59:33.907Z,4.13
2022-12-06T22:02:02.697Z,3.90
2022-12-06T22:04:32.805Z,4.05
2022-12-06T22:07:01.493Z,4.06
2022-12-06T22:09:30.376Z,4.09
2022-12-06T22:11:59.136Z,3.86
2022-12-06T22:14:28.086Z,3.97
2022-12-06T22:16:56.627Z,3.96
2022-12-06T22:19:25.364Z,4.03
2022-12-06T22:21:57.418Z,4.01
2022-12-06T22:24:26.336Z,4.04
2022-12-06T22:26:55.036Z,4.04
2022-12-06T22:29:23.664Z,3.94
2022-12-06T22:31:52.277Z,4.01
2022-12-06T22:34:20.986Z,3.91
2022-12-06T22:36:49.736Z,3.97
2022-12-06T22:39:20.075Z,3.99
2022-12-06T22:41:48.798Z,4.01
2022-12-06T22:44:18.240Z,3.98
2022-12-06T22:46:46.916Z,3.98
2022-12-06T22:49:18.199Z,3.77
2022-12-06T22:51:47.817Z,3.92
2022-12-06T22:54:16.910Z,3.94
2022-12-06T22:56:49.477Z,3.76
2022-12-06T22:59:19.087Z,3.99
2022-12-06T23:01:47.750Z,3.90
2022-12-06T23:04:16.698Z,3.94
2022-12-06T23:06:45.306Z,3.76
2022-12-06T23:09:16.961Z,3.96
2022-12-06T23:11:47.174Z,3.92
2022-12-06T23:14:15.998Z,3.91
2022-12-06T23:16:45.743Z,3.93
2022-12-06T23:19:18.155Z,3.91
2022-12-06T23:21:46.989Z,3.89
2022-12-06T23:24:16.573Z,3.98
2022-12-06T23:26:50.653Z,3.99
2022-12-06T23:29:21.780Z,3.99
2022-12-06T23:31:50.410Z,3.98
2022-12-06T23:34:22.722Z,4.01
2022-12-06T23:36:51.858Z,3.82
2022-12-06T23:39:20.548Z,4.02
2022-12-06T23:41:50.843Z,4.03
2022-12-06T23:44:19.902Z,4.02
2022-12-06T23:46:48.572Z,4.04
2022-12-06T23:49:18.747Z,4.06
2022-12-06T23:51:48.046Z,4.08
2022-12-06T23:54:18.694Z,4.03
2022-12-06T23:56:47.696Z,3.90
2022-12-06T23:59:19.424Z,4.14
